^^
Datos históricos de la estación: Murcia-Puente Tocinos
Diario Informe para Mayo 12, 2019 Unidades:  Ingés    Métrico   Ambas
Diario Semanal Mensual Anual
  Máxima: Mínima: Promedio:
Temperatura: 75.6 °F 61.9 °F 68.4 °F
Punto de rocio: 60.8 °F 46.2 °F 54.3 °F
Humedad: 80% 40.1% 62%
Velocidad viento: 12.5mph 0mph 6.1mph
Racha viento: 25.3mph - -
Viento- - ENE
Presión: 29.9 in 29.8 in -
Precipitación: 0 in    
 
 
Tabla de datos para Mayo 12, 2019
Hora Temperatura Punto de rocio Presión Viento Velocidad viento Racha viento Humedad Intensidad lluvia(por hora) Nubes
00:04 66.4 °F 57 °F 29.9 in NE 3.1 mph 6 mph 72% 0 in
00:09 66.2 °F 56.8 °F 29.9 in NE 2.9 mph 6 mph 72% 0 in
00:14 66.2 °F 56.8 °F 29.9 in NE 2.4 mph 5.9 mph 72% 0 in
00:19 66 °F 56.3 °F 29.9 in NE 2.9 mph 6.9 mph 71.2% 0 in
00:24 66 °F 56.3 °F 29.9 in NE 4 mph 7 mph 71% 0 in
00:29 66 °F 56.3 °F 29.9 in NE 4.1 mph 6 mph 71% 0 in
00:34 66 °F 56.3 °F 29.9 in NE 4.3 mph 6.9 mph 71% 0 in
00:39 66 °F 56.3 °F 29.9 in NE 4.1 mph 7 mph 71% 0 in
00:44 66 °F 56.3 °F 29.9 in NE 3.6 mph 6.9 mph 71% 0 in
00:49 66 °F 56.3 °F 29.9 in NE 3.6 mph 7 mph 71% 0 in
00:54 66.2 °F 56.5 °F 29.9 in NE 3.6 mph 6.4 mph 71% 0 in
00:59 66.2 °F 56.5 °F 29.9 in NE 3.6 mph 7 mph 71% 0 in
01:04 66.2 °F 56.5 °F 29.9 in NE 3.6 mph 7.6 mph 71% 0 in
01:09 66.2 °F 56.3 °F 29.9 in NE 4.1 mph 8.1 mph 70.5% 0 in
01:14 66.2 °F 56.5 °F 29.9 in NE 5.2 mph 8.1 mph 71% 0 in
01:19 66.2 °F 56.5 °F 29.9 in ENE 4.8 mph 8.1 mph 71% 0 in
01:24 66 °F 56.5 °F 29.9 in ENE 4 mph 8.5 mph 71.4% 0 in
01:29 65.8 °F 56.7 °F 29.9 in ENE 4.1 mph 9.2 mph 72% 0 in
01:34 65.7 °F 56.5 °F 29.9 in NE 4.3 mph 9 mph 72% 0 in
01:39 65.5 °F 56.1 °F 29.9 in NE 4.3 mph 8 mph 72% 0 in
01:44 65.5 °F 56.1 °F 29.9 in NE 4.3 mph 7 mph 72% 0 in
01:49 65.3 °F 55.9 °F 29.9 in NE 4.3 mph 9.2 mph 72% 0 in
01:54 65.1 °F 56.1 °F 29.9 in NE 4.3 mph 9 mph 72.6% 0 in
01:59 65.1 °F 56.1 °F 29.9 in ENE 4.5 mph 9 mph 72.6% 0 in
02:04 64.9 °F 55.8 °F 29.9 in ENE 4.7 mph 9.2 mph 72% 0 in
02:09 64.9 °F 55.8 °F 29.9 in ENE 4.5 mph 9 mph 72% 0 in
02:14 64.8 °F 55.6 °F 29.9 in ENE 4 mph 9.2 mph 72% 0 in
02:19 64.6 °F 55 °F 29.9 in NE 4.4 mph 9.7 mph 71.3% 0 in
02:24 64.6 °F 55 °F 29.9 in NE 5.2 mph 10 mph 71% 0 in
02:29 64.6 °F 55 °F 29.9 in NE 5.2 mph 9.2 mph 71% 0 in
02:34 64.4 °F 54.9 °F 29.9 in NE 5.2 mph 9 mph 71% 0 in
02:39 64.4 °F 54.9 °F 29.9 in NE 5 mph 10.4 mph 71% 0 in
02:44 64.4 °F 54.9 °F 29.9 in NE 4.7 mph 10 mph 71% 0 in
02:49 64.4 °F 54.9 °F 29.9 in NE 4.6 mph 10.4 mph 71% 0 in
02:54 64.4 °F 54.7 °F 29.9 in NE 4.3 mph 10.4 mph 71% 0 in
02:59 64.2 °F 54.7 °F 29.9 in NE 4.8 mph 10.4 mph 71% 0 in
03:04 64.2 °F 54.7 °F 29.9 in NE 5.9 mph 10.4 mph 71% 0 in
03:09 64.4 °F 54.7 °F 29.9 in NE 5.7 mph 10 mph 71% 0 in
03:14 64.4 °F 54.9 °F 29.9 in NE 5.2 mph 11.5 mph 71% 0 in
03:19 64.4 °F 54.9 °F 29.9 in NE 5.5 mph 12 mph 71% 0 in
03:24 64.4 °F 54.9 °F 29.9 in NE 6.2 mph 10.4 mph 71% 0 in
03:29 64.2 °F 54.7 °F 29.9 in NE 6.1 mph 10 mph 71% 0 in
03:34 64.2 °F 54.7 °F 29.9 in NE 5.9 mph 8 mph 71% 0 in
03:39 64.2 °F 54.5 °F 29.9 in ENE 5.3 mph 7 mph 70.9% 0 in
03:44 64.2 °F 54.3 °F 29.9 in ENE 4 mph 7 mph 70.5% 0 in
03:49 64 °F 54.3 °F 29.9 in NE 4 mph 7 mph 70.5% 0 in
03:54 64 °F 54.1 °F 29.9 in NE 4 mph 7.4 mph 70.3% 0 in
03:59 63.9 °F 54.1 °F 29.9 in NE 4 mph 8.1 mph 70.8% 0 in
04:04 63.9 °F 54.3 °F 29.9 in NE 4 mph 8 mph 71% 0 in
04:09 63.7 °F 54.1 °F 29.9 in NE 3.9 mph 7 mph 71% 0 in
04:14 63.9 °F 54.1 °F 29.9 in NE 3.6 mph 6.2 mph 71% 0 in
04:19 63.9 °F 54.3 °F 29.9 in ENE 3.4 mph 6 mph 71% 0 in
04:24 63.7 °F 54.1 °F 29.9 in ENE 2.9 mph 5 mph 71% 0 in
04:29 63.7 °F 54.1 °F 29.9 in NNE 2.6 mph 5 mph 71% 0 in
04:34 63.7 °F 54.1 °F 29.9 in NE 2 mph 5 mph 71% 0 in
04:39 63.5 °F 54 °F 29.9 in NNE 2.1 mph 5.2 mph 71% 0 in
04:44 63.3 °F 53.8 °F 29.9 in NE 2.4 mph 5 mph 71% 0 in
04:49 63.3 °F 53.8 °F 29.9 in North 2.4 mph 4.6 mph 71% 0 in
04:54 63.1 °F 54 °F 29.9 in NNO 2.4 mph 5.2 mph 71.9% 0 in
04:59 63.1 °F 54 °F 29.9 in NNO 2.2 mph 5.2 mph 72% 0 in
05:04 63 °F 53.8 °F 29.9 in North 2 mph 5 mph 72% 0 in
05:09 63 °F 53.8 °F 29.9 in NNE 2 mph 5 mph 72% 0 in
05:14 63 °F 54.1 °F 29.9 in North 2 mph 4.6 mph 72.7% 0 in
05:19 63 °F 54.1 °F 29.9 in NO 2 mph 5 mph 73% 0 in
05:24 62.8 °F 54 °F 29.9 in NO 2 mph 5.8 mph 73% 0 in
05:29 62.6 °F 54.1 °F 29.9 in NNO 2.3 mph 6 mph 73.9% 0 in
05:34 62.4 °F 54 °F 29.9 in NNO 2.9 mph 5.2 mph 74% 0 in
05:39 62.2 °F 54.1 °F 29.9 in NNO 2.7 mph 5 mph 74.9% 0 in
05:44 62.2 °F 54.1 °F 29.9 in NNO 2.4 mph 5 mph 75% 0 in
05:49 62.1 °F 54 °F 29.9 in NNO 2.3 mph 5 mph 75% 0 in
05:54 62.1 °F 54 °F 29.9 in NNO 2 mph 3 mph 75% 0 in
05:59 62.1 °F 54 °F 29.9 in NNO 1.2 mph 2 mph 75% 0 in
06:04 62.1 °F 54 °F 29.9 in Calm   2.4 mph 75% 0 in
06:09 62.1 °F 54 °F 29.9 in Calm   2 mph 75% 0 in
06:14 62.1 °F 54 °F 29.9 in Calm     75% 0 in
06:19 62.2 °F 54.1 °F 29.9 in Calm     75% 0 in
06:24 62.2 °F 54.1 °F 29.9 in Calm   2.9 mph 75% 0 in
06:29 62.1 °F 54 °F 29.9 in NE 0.4 mph 4 mph 75% 0 in
06:34 62.1 °F 54 °F 29.9 in NE 1.4 mph 5 mph 75% 0 in
06:39 62.1 °F 54 °F 29.9 in NE 1.6 mph 5 mph 75% 0 in
06:44 62.1 °F 54 °F 29.9 in NE 1.8 mph 3 mph 75% 0 in
06:49 62.1 °F 54 °F 29.9 in NNE 1.7 mph 4.6 mph 75% 0 in
06:54 62.1 °F 54 °F 29.9 in NO 1.4 mph 5 mph 75% 0 in
06:59 61.9 °F 54 °F 29.9 in ONO 1.7 mph 5.2 mph 75% 0 in
07:04 61.9 °F 54 °F 29.9 in ONO 2.4 mph 5.9 mph 75% 0 in
07:09 61.9 °F 54 °F 29.9 in ONO 2.7 mph 6 mph 75% 0 in
07:14 61.9 °F 54 °F 29.9 in NO 3.6 mph 6 mph 75% 0 in
07:19 61.9 °F 54 °F 29.9 in NO 3.2 mph 5 mph 75% 0 in
07:24 62.1 °F 53.8 °F 29.9 in NO 2.4 mph 4.6 mph 74.2% 0 in
07:29 62.2 °F 53.8 °F 29.9 in NO 2.2 mph 5 mph 74% 0 in
07:34 62.2 °F 53.8 °F 29.9 in NO 2 mph 5 mph 73.8% 0 in
07:39 62.4 °F 53.8 °F 29.9 in NO 1.8 mph 4 mph 73.4% 0 in
07:44 62.4 °F 53.8 °F 29.9 in NO 1.4 mph 4 mph 73.2% 0 in
07:49 62.8 °F 54.1 °F 29.9 in NO 1 mph 2.9 mph 73.3% 0 in
07:54 63 °F 54.1 °F 29.9 in Calm   3 mph 73% 0 in
07:59 63.7 °F 54.5 °F 29.9 in Calm   3.5 mph 72.3% 0 in
08:04 64.4 °F 54.5 °F 29.9 in Calm   3 mph 70.6% 0 in
08:09 65.1 °F 54.5 °F 29.9 in Calm   2 mph 68.8% 0 in
08:14 65.7 °F 54.3 °F 29.9 in Calm   3.5 mph 67.1% 0 in
08:19 65.8 °F 54.5 °F 29.9 in Calm   3.5 mph 66.4% 0 in
08:24 66.6 °F 54 °F 29.9 in Calm   4.6 mph 64.2% 0 in
08:29 66.7 °F 53.8 °F 29.9 in NE 0.6 mph 5 mph 63.5% 0 in
08:34 66.7 °F 53.2 °F 29.9 in ENE 1.8 mph 5 mph 61.9% 0 in
08:39 66.7 °F 53.4 °F 29.9 in ENE 2 mph 5 mph 62.4% 0 in
08:44 66.7 °F 52.9 °F 29.9 in NE 2.4 mph 6.9 mph 61.3% 0 in
08:49 66.6 °F 52.7 °F 29.9 in NE 2.8 mph 7 mph 61% 0 in
08:54 66.6 °F 52.7 °F 29.9 in NE 3.6 mph 7 mph 61.2% 0 in
08:59 66.6 °F 53.1 °F 29.9 in North 3.7 mph 7 mph 62% 0 in
09:04 66.6 °F 52.9 °F 29.9 in North 4 mph 6 mph 61.7% 0 in
09:09 66.7 °F 52.9 °F 29.9 in NNE 3.7 mph 8.1 mph 61.1% 0 in
09:14 66.7 °F 52.5 °F 29.9 in NE 3.1 mph 8.1 mph 60.3% 0 in
09:19 66.7 °F 52.3 °F 29.9 in NE 3.2 mph 8.5 mph 59.6% 0 in
09:24 67.1 °F 52.3 °F 29.9 in NE 3.6 mph 9 mph 58.9% 0 in
09:29 67.1 °F 51.6 °F 29.9 in NE 4.2 mph 10.7 mph 57.5% 0 in
09:34 66.9 °F 51.6 °F 29.9 in ENE 5.4 mph 11 mph 57.8% 0 in
09:39 67.3 °F 51.6 °F 29.9 in NE 5.3 mph 11.4 mph 57.1% 0 in
09:44 67.5 °F 50.9 °F 29.9 in NE 5.2 mph 12 mph 55.3% 0 in
09:49 67.6 °F 50.9 °F 29.9 in NE 5.6 mph 12 mph 55% 0 in
09:54 67.6 °F 50.7 °F 29.9 in ENE 6.4 mph 12 mph 54.6% 0 in
09:59 68.2 °F 51.1 °F 29.9 in ENE 6 mph 10 mph 54.5% 0 in
10:04 68.4 °F 50.9 °F 29.9 in NE 5.4 mph 11.5 mph 53.9% 0 in
10:09 68.2 °F 50.9 °F 29.9 in ENE 5.6 mph 12.5 mph 54% 0 in
10:14 68.4 °F 50.2 °F 29.9 in ENE 5.9 mph 13 mph 52.5% 0 in
10:19 68.4 °F 49.8 °F 29.9 in NE 5.9 mph 12.7 mph 51.4% 0 in
10:24 68.5 °F 49.3 °F 29.9 in ENE 5.9 mph 13 mph 50.3% 0 in
10:29 68.7 °F 49.5 °F 29.9 in ENE 6 mph 13 mph 50.2% 0 in
10:34 69.3 °F 48.9 °F 29.9 in ENE 6.2 mph 14 mph 48.6% 0 in
10:39 69.1 °F 48 °F 29.9 in ENE 6.6 mph 14 mph 47% 0 in
10:44 69.3 °F 47.5 °F 29.9 in ENE 7.6 mph 14 mph 46% 0 in
10:49 69.4 °F 46.9 °F 29.9 in NE 7.4 mph 12.7 mph 44.6% 0 in
10:54 69.4 °F 46.2 °F 29.9 in NE 6.9 mph 13 mph 43.6% 0 in
10:59 69.6 °F 46.4 °F 29.9 in ENE 6.6 mph 12 mph 43.5% 0 in
11:04 70.2 °F 46.4 °F 29.9 in NE 6.2 mph 10.4 mph 42.6% 0 in
11:09 70.2 °F 46.4 °F 29.9 in NE 6 mph 10.4 mph 42.7% 0 in
11:14 70 °F 46.4 °F 29.9 in NE 5.4 mph 14 mph 43% 0 in
11:19 70 °F 46.4 °F 29.9 in ESE 5.9 mph 14 mph 43.1% 0 in
11:24 70.2 °F 46.8 °F 29.9 in ENE 6.9 mph 12 mph 43.2% 0 in
11:29 70.2 °F 46.8 °F 29.9 in ENE 6.7 mph 12.7 mph 43.1% 0 in
11:34 70.3 °F 46.9 °F 29.9 in ENE 6.2 mph 13 mph 43.2% 0 in
11:39 70.5 °F 46.9 °F 29.9 in NE 5.6 mph 11.8 mph 43% 0 in
11:44 70.7 °F 47.1 °F 29.9 in NE 4.3 mph 12 mph 43% 0 in
11:49 70.7 °F 47.5 °F 29.9 in NE 4.8 mph 10.4 mph 43.5% 0 in
11:54 71.1 °F 48 °F 29.9 in ENE 5.9 mph 13.8 mph 44% 0 in
11:59 71.2 °F 47.8 °F 29.9 in NNE 5.9 mph 14 mph 43.4% 0 in
12:04 71.2 °F 48.2 °F 29.9 in NE 5.9 mph 12 mph 43.9% 0 in
12:09 71.4 °F 48.2 °F 29.9 in NE 6.3 mph 11.8 mph 43.7% 0 in
12:14 71.6 °F 48 °F 29.9 in ENE 7.4 mph 12 mph 43.1% 0 in
12:19 72 °F 48 °F 29.9 in ENE 6.9 mph 11 mph 42.7% 0 in
12:24 72.1 °F 48.2 °F 29.9 in ENE 5.9 mph 12.3 mph 42.6% 0 in
12:29 72.3 °F 47.8 °F 29.9 in ESE 6 mph 13 mph 42% 0 in
12:34 72.3 °F 47.8 °F 29.9 in ENE 6.2 mph 13 mph 41.8% 0 in
12:39 72.3 °F 47.5 °F 29.9 in ENE 6 mph 13 mph 41.3% 0 in
12:44 72.1 °F 47.1 °F 29.9 in NE 5.4 mph 13 mph 41% 0 in
12:49 72.3 °F 47.5 °F 29.9 in ENE 5.7 mph 16.1 mph 41.4% 0 in
12:54 72.7 °F 48 °F 29.9 in ENE 6.4 mph 16.1 mph 41.6% 0 in
12:59 72.9 °F 47.8 °F 29.9 in ENE 6.8 mph 15 mph 41.1% 0 in
13:04 73 °F 47.8 °F 29.9 in ENE 7.6 mph 14.5 mph 40.8% 0 in
13:09 73.2 °F 47.8 °F 29.9 in ENE 7.6 mph 14 mph 40.7% 0 in
13:14 73 °F 47.7 °F 29.9 in ENE 7.6 mph 16.1 mph 40.6% 0 in
13:19 72.7 °F 48 °F 29.9 in ENE 7.5 mph 16.3 mph 41.5% 0 in
13:24 73 °F 48.2 °F 29.9 in NE 7.4 mph 16 mph 41.5% 0 in
13:29 73 °F 48 °F 29.9 in NE 7.4 mph 15.2 mph 41% 0 in
13:34 73 °F 47.8 °F 29.9 in NE 7.4 mph 15 mph 40.8% 0 in
13:39 73 °F 47.8 °F 29.9 in NE 7.5 mph 13.8 mph 41% 0 in
13:44 73 °F 47.7 °F 29.9 in NE 7.6 mph 14 mph 40.6% 0 in
13:49 73.2 °F 47.5 °F 29.9 in NE 7.5 mph 14 mph 40.1% 0 in
13:54 73.4 °F 47.7 °F 29.9 in ENE 7.4 mph 17.3 mph 40.1% 0 in
13:59 73 °F 47.8 °F 29.9 in ENE 7.5 mph 19 mph 40.7% 0 in
14:04 73 °F 47.7 °F 29.9 in NE 7.6 mph 19 mph 40.5% 0 in
14:09 73 °F 47.5 °F 29.9 in ENE 7.9 mph 20.4 mph 40.5% 0 in
14:14 73 °F 48 °F 29.9 in Este 8.5 mph 21 mph 41.1% 0 in
14:19 73 °F 48.2 °F 29.9 in NE 8.9 mph 21 mph 41.4% 0 in
14:24 72.9 °F 48.7 °F 29.9 in NE 10 mph 20 mph 42.4% 0 in
14:29 73.2 °F 48.6 °F 29.9 in NE 10.1 mph 17 mph 41.9% 0 in
14:34 73.6 °F 48.7 °F 29.9 in NNE 10.2 mph 16.1 mph 41.6% 0 in
14:39 73.8 °F 49.3 °F 29.9 in ENE 9.8 mph 17.5 mph 42.2% 0 in
14:44 73.9 °F 49.8 °F 29.9 in NE 8.7 mph 17 mph 42.4% 0 in
14:49 74.5 °F 50.2 °F 29.9 in ENE 8.6 mph 16.3 mph 42.5% 0 in
14:54 74.1 °F 50 °F 29.9 in Este 8.5 mph 18.4 mph 42.6% 0 in
14:59 73.9 °F 50.5 °F 29.9 in ENE 9 mph 19.6 mph 43.8% 0 in
15:04 73.9 °F 51.1 °F 29.9 in NE 10 mph 20 mph 44.9% 0 in
15:09 73.8 °F 51.3 °F 29.9 in ENE 9.5 mph 19 mph 45.3% 0 in
15:14 73.9 °F 52 °F 29.9 in NE 8.5 mph 18 mph 46% 0 in
15:19 73.9 °F 52.3 °F 29.9 in ENE 8.9 mph 19.6 mph 46.8% 0 in
15:24 74.1 °F 52.5 °F 29.9 in ENE 9.7 mph 20 mph 46.8% 0 in
15:29 74.3 °F 52.2 °F 29.9 in NE 9.2 mph 16.1 mph 46% 0 in
15:34 73.8 °F 52 °F 29.9 in ENE 8.1 mph 19.6 mph 46.6% 0 in
15:39 73.8 °F 52.2 °F 29.9 in Este 8.7 mph 20 mph 46.9% 0 in
15:44 74.1 °F 52.7 °F 29.9 in ENE 10 mph 15 mph 47% 0 in
15:49 74.5 °F 53.4 °F 29.9 in NE 9.2 mph 15 mph 48% 0 in
15:54 74.7 °F 54 °F 29.9 in NE 7.6 mph 20.1 mph 48.6% 0 in
15:59 74.1 °F 53.8 °F 29.9 in NE 8.4 mph 21 mph 48.8% 0 in
16:04 73.9 °F 53.8 °F 29.9 in Este 10 mph 18 mph 49.4% 0 in
16:09 74.7 °F 54.1 °F 29.9 in ENE 9.4 mph 15.6 mph 49% 0 in
16:14 74.8 °F 54.3 °F 29.9 in NE 8.1 mph 18.4 mph 48.9% 0 in
16:19 74.8 °F 54 °F 29.9 in Este 8.3 mph 19 mph 48.1% 0 in
16:24 75 °F 54.5 °F 29.9 in ENE 8.7 mph 19 mph 49% 0 in
16:29 75.4 °F 54.5 °F 29.9 in ENE 8.6 mph 17.3 mph 48.4% 0 in
16:34 75.4 °F 54.3 °F 29.9 in ENE 8.5 mph 17 mph 48.1% 0 in
16:39 75.6 °F 54.7 °F 29.9 in ENE 8.2 mph 16.1 mph 48.4% 0 in
16:44 75.2 °F 54.5 °F 29.9 in NE 7.6 mph 18.5 mph 48.8% 0 in
16:49 74.8 °F 54.5 °F 29.9 in NE 8.3 mph 19 mph 49% 0 in
16:54 74.7 °F 54.7 °F 29.9 in ENE 10 mph 17 mph 49.8% 0 in
16:59 74.8 °F 54.9 °F 29.9 in NE 9.7 mph 20.7 mph 50% 0 in
17:04 74.7 °F 55.2 °F 29.9 in NE 9.2 mph 21 mph 50.9% 0 in
17:09 74.5 °F 55.2 °F 29.9 in NE 10.3 mph 20.8 mph 51.3% 0 in
17:14 74.1 °F 55.4 °F 29.9 in NE 12.3 mph 25.3 mph 52% 0 in
17:19 73.9 °F 55.8 °F 29.9 in NE 12 mph 25 mph 52.9% 0 in
17:24 73.9 °F 55.9 °F 29.9 in ENE 11.2 mph 21.9 mph 53.3% 0 in
17:29 74.1 °F 55.6 °F 29.9 in NE 10.8 mph 23 mph 52.5% 0 in
17:34 73.8 °F 55.6 °F 29.9 in NE 10 mph 23 mph 53.1% 0 in
17:39 73.4 °F 55.6 °F 29.9 in NE 10.6 mph 18 mph 53.8% 0 in
17:44 73.8 °F 55.9 °F 29.9 in ENE 11.8 mph 17 mph 54% 0 in
17:49 73.8 °F 56.1 °F 29.9 in NE 10.9 mph 17.8 mph 54% 0 in
17:54 73.4 °F 55.9 °F 29.9 in NE 9.2 mph 21.9 mph 54.3% 0 in
17:59 73.2 °F 56.3 °F 29.9 in NE 10.3 mph 22 mph 55.5% 0 in
18:04 73 °F 56.5 °F 29.9 in ENE 12.3 mph 19 mph 56% 0 in
18:09 73 °F 56.5 °F 29.9 in NE 11.7 mph 19 mph 56% 0 in
18:14 73 °F 56.7 °F 29.9 in ENE 10.2 mph 17.5 mph 56.5% 0 in
18:19 73 °F 56.8 °F 29.9 in ENE 10.2 mph 20.7 mph 56.8% 0 in
18:24 72.7 °F 56.8 °F 29.8 in NE 10.2 mph 21 mph 57.9% 0 in
18:29 72.3 °F 57.2 °F 29.8 in NE 10.9 mph 21.9 mph 58.8% 0 in
18:34 72.3 °F 57.2 °F 29.8 in NE 12.5 mph 22 mph 59% 0 in
18:39 72.7 °F 57.2 °F 29.8 in NE 11.8 mph 20 mph 58.4% 0 in
18:44 72.7 °F 57.6 °F 29.8 in ENE 10.2 mph 20.7 mph 59% 0 in
18:49 72.7 °F 57.4 °F 29.8 in North 9.9 mph 21 mph 59% 0 in
18:54 72.7 °F 57.9 °F 29.8 in NE 9.2 mph 17.3 mph 59.9% 0 in
18:59 72.5 °F 58.1 °F 29.8 in NE 9 mph 17 mph 60.5% 0 in
19:04 72.3 °F 58.1 °F 29.8 in ENE 8.7 mph 17.3 mph 61% 0 in
19:09 72 °F 58.1 °F 29.8 in NE 9.1 mph 19 mph 61.6% 0 in
19:14 72.1 °F 58.1 °F 29.8 in NE 10 mph 19 mph 61.5% 0 in
19:19 72 °F 58.3 °F 29.8 in NE 10 mph 17.3 mph 62.4% 0 in
19:24 71.8 °F 58.5 °F 29.8 in NE 10 mph 19.6 mph 63% 0 in
19:29 71.2 °F 58.3 °F 29.8 in NE 10.1 mph 20 mph 63.4% 0 in
19:34 71.1 °F 58.6 °F 29.8 in NE 10.2 mph 16.3 mph 64.8% 0 in
19:39 71.1 °F 58.6 °F 29.8 in NE 10.1 mph 16.1 mph 65% 0 in
19:44 71.1 °F 58.8 °F 29.8 in NE 9.7 mph 19.2 mph 65% 0 in
19:49 70.9 °F 58.6 °F 29.8 in ENE 9.8 mph 20.8 mph 65.2% 0 in
19:54 71.1 °F 58.8 °F 29.8 in NE 10 mph 21 mph 65.6% 0 in
19:59 70.5 °F 58.5 °F 29.8 in ENE 9.9 mph 19 mph 65.6% 0 in
20:04 70.2 °F 58.8 °F 29.8 in NE 9.7 mph 19 mph 66.9% 0 in
20:09 70.2 °F 58.6 °F 29.8 in NE 9.4 mph 16.1 mph 67% 0 in
20:14 70.2 °F 58.6 °F 29.8 in NE 8.7 mph 19.7 mph 67.3% 0 in
20:19 69.8 °F 59 °F 29.9 in ENE 9.2 mph 20 mph 68.6% 0 in
20:24 69.6 °F 59 °F 29.9 in NE 10.2 mph 17 mph 69% 0 in
20:29 69.6 °F 59 °F 29.9 in NE 9.6 mph 16.1 mph 69% 0 in
20:34 69.4 °F 59.2 °F 29.9 in ENE 8.5 mph 16 mph 69.7% 0 in
20:39 69.4 °F 59.2 °F 29.8 in NE 8.5 mph 15 mph 70% 0 in
20:44 69.3 °F 59.2 °F 29.8 in NE 8.5 mph 16.1 mph 70.1% 0 in
20:49 69.1 °F 59.4 °F 29.9 in NE 8.4 mph 16 mph 71% 0 in
20:54 69.1 °F 59.7 °F 29.9 in NE 8.1 mph 15 mph 71.9% 0 in
20:59 69.1 °F 59.5 °F 29.9 in ENE 7.8 mph 14 mph 72% 0 in
21:04 68.9 °F 59.5 °F 29.9 in ENE 7.4 mph 15.2 mph 72% 0 in
21:09 68.7 °F 59.4 °F 29.9 in ENE 7.6 mph 15.2 mph 72.3% 0 in
21:14 68.5 °F 59.5 °F 29.9 in ENE 8.1 mph 15 mph 73% 0 in
21:19 68.5 °F 59.5 °F 29.9 in ENE 7.9 mph 17.3 mph 73% 0 in
21:24 68.5 °F 59.5 °F 29.9 in NE 7.4 mph 17 mph 73% 0 in
21:29 68.5 °F 59.5 °F 29.9 in NE 7.5 mph 16.1 mph 73% 0 in
21:34 68.4 °F 59.5 °F 29.9 in NE 7.6 mph 16 mph 73.5% 0 in
21:39 68.5 °F 59.9 °F 29.9 in NE 7.4 mph 14 mph 74% 0 in
21:44 68.5 °F 59.9 °F 29.9 in NE 6.9 mph 13.8 mph 74% 0 in
21:49 68.5 °F 59.9 °F 29.9 in NE 7.1 mph 19.6 mph 74% 0 in
21:54 68.2 °F 59.7 °F 29.9 in NE 7.6 mph 20 mph 74.4% 0 in
21:59 68.2 °F 60.1 °F 29.9 in NE 8.2 mph 15 mph 75% 0 in
22:04 68.2 °F 60.1 °F 29.9 in NE 9.2 mph 15 mph 75.1% 0 in
22:09 67.8 °F 60.1 °F 29.9 in NE 9 mph 15 mph 76% 0 in
22:14 67.8 °F 60.1 °F 29.9 in NE 8.5 mph 14 mph 76% 0 in
22:19 67.8 °F 60.1 °F 29.9 in NE 8.5 mph 14 mph 76.4% 0 in
22:24 67.6 °F 60.3 °F 29.9 in NE 8.5 mph 16.3 mph 77% 0 in
22:29 67.6 °F 60.3 °F 29.9 in NE 8.5 mph 16 mph 77% 0 in
22:34 67.8 °F 60.3 °F 29.9 in NE 8.5 mph 14.5 mph 76.6% 0 in
22:39 67.8 °F 60.1 °F 29.9 in NE 8.2 mph 15 mph 76% 0 in
22:44 67.8 °F 60.1 °F 29.9 in NE 7.6 mph 15 mph 76% 0 in
22:49 67.8 °F 60.3 °F 29.9 in NE 7.5 mph 12 mph 76.9% 0 in
22:54 67.6 °F 60.3 °F 29.9 in NE 7.4 mph 12.5 mph 77% 0 in
22:59 67.6 °F 60.4 °F 29.9 in NE 7.2 mph 13 mph 77.9% 0 in
23:04 67.5 °F 60.4 °F 29.9 in NE 6.9 mph 13 mph 78% 0 in
23:09 67.5 °F 60.4 °F 29.9 in NE 6.9 mph 12 mph 78% 0 in
23:14 67.3 °F 60.3 °F 29.9 in NNE 6.9 mph 12 mph 78.4% 0 in
23:19 67.3 °F 60.4 °F 29.9 in NE 6.6 mph 12 mph 79% 0 in
23:24 67.1 °F 60.4 °F 29.9 in NE 5.9 mph 11.2 mph 79% 0 in
23:29 67.1 °F 60.4 °F 29.9 in NNE 5.7 mph 12 mph 79.2% 0 in
23:34 67.1 °F 60.8 °F 29.9 in NNE 5.4 mph 12 mph 80% 0 in
23:39 67.1 °F 60.8 °F 29.9 in NE 5.7 mph 11 mph 80% 0 in
23:44 67.3 °F 60.8 °F 29.9 in NNE 6.2 mph 9.2 mph 80% 0 in
23:49 67.3 °F 60.8 °F 29.9 in NE 6 mph 10.7 mph 80% 0 in
23:54 67.1 °F 60.8 °F 29.9 in NE 5.4 mph 11 mph 80% 0 in
23:59 67.1 °F 60.8 °F 29.9 in NE 5.3 mph 9 mph 80% 0 in
Murcia-Puente Tocinos, España
Compliments of Weather Underground - 3 mb

La estación de MeteoMurcia.com, publica sus datos en los siguientes proyectos:

Weather Underground PWS IMURCIAP2 Meteoclimatic www.awekas.at

W3Counter
Web Analytics